createdAt,value
2017-03-03T00:01:43.045Z,0
2017-03-03T00:03:43.108Z,0
2017-03-03T00:04:43.110Z,0
2017-03-03T00:05:57.654Z,0
2017-03-03T00:06:43.457Z,0
2017-03-03T00:07:43.215Z,0
2017-03-03T00:08:43.187Z,0
2017-03-03T00:09:57.715Z,0
2017-03-03T00:10:42.817Z,0
2017-03-03T00:11:43.236Z,0
2017-03-03T00:12:43.251Z,0
2017-03-03T00:13:42.883Z,0
2017-03-03T00:14:43.280Z,0
2017-03-03T00:15:57.444Z,0
2017-03-03T00:16:43.309Z,0
2017-03-03T00:17:43.326Z,0
2017-03-03T00:18:43.355Z,0
2017-03-03T00:19:43.363Z,0
2017-03-03T00:20:43.403Z,0
2017-03-03T00:21:43.417Z,0
2017-03-03T00:22:43.423Z,0
2017-03-03T00:23:43.057Z,0
2017-03-03T00:24:43.461Z,0
2017-03-03T00:25:58.043Z,0
2017-03-03T00:26:58.027Z,0
2017-03-03T00:27:43.541Z,0
2017-03-03T00:28:43.534Z,0
2017-03-03T00:29:43.557Z,0
2017-03-03T00:30:43.564Z,0
2017-03-03T00:32:43.609Z,0
2017-03-03T00:33:43.636Z,0
2017-03-03T00:34:58.161Z,0
2017-03-03T00:35:43.658Z,0
2017-03-03T00:36:43.673Z,0
2017-03-03T00:38:43.740Z,0
2017-03-03T00:39:43.720Z,0
2017-03-03T00:41:58.288Z,0
2017-03-03T00:42:43.820Z,0
2017-03-03T00:43:43.796Z,0
2017-03-03T00:44:43.821Z,0
2017-03-03T00:45:43.831Z,0
2017-03-03T00:47:43.864Z,0
2017-03-03T00:48:43.500Z,0
2017-03-03T00:49:43.908Z,0
2017-03-03T00:50:43.923Z,0
2017-03-03T00:51:43.973Z,0
2017-03-03T00:52:43.954Z,0
2017-03-03T00:53:58.507Z,0
2017-03-03T00:54:44.008Z,0
2017-03-03T00:55:44.027Z,0
2017-03-03T00:56:44.034Z,0
2017-03-03T00:57:58.573Z,0
2017-03-03T00:58:44.057Z,0
2017-03-03T00:59:44.080Z,0
2017-03-03T01:00:58.644Z,0
2017-03-03T01:01:44.111Z,0
2017-03-03T01:02:58.662Z,0
2017-03-03T01:03:58.679Z,0
2017-03-03T01:04:44.169Z,0
2017-03-03T01:05:44.181Z,0
2017-03-03T01:06:44.215Z,0
2017-03-03T01:07:44.254Z,0
2017-03-03T01:08:43.875Z,0
2017-03-03T01:09:44.263Z,0
2017-03-03T01:10:44.327Z,0
2017-03-03T01:11:44.290Z,0
2017-03-03T01:12:58.858Z,0
2017-03-03T01:13:43.938Z,0
2017-03-03T01:15:44.371Z,0
2017-03-03T01:16:44.394Z,0
2017-03-03T01:17:44.405Z,0
2017-03-03T01:18:58.959Z,0
2017-03-03T01:19:44.429Z,0
2017-03-03T01:20:44.468Z,0
2017-03-03T01:21:44.475Z,0
2017-03-03T01:22:44.480Z,0
2017-03-03T01:23:59.036Z,0
2017-03-03T01:24:44.542Z,0
2017-03-03T01:25:44.160Z,0
2017-03-03T01:26:44.554Z,0
2017-03-03T01:27:44.573Z,0
2017-03-03T01:28:44.212Z,0
2017-03-03T01:29:44.618Z,0
2017-03-03T01:30:44.628Z,0
2017-03-03T01:31:44.271Z,0
2017-03-03T01:32:44.667Z,0
2017-03-03T01:33:44.307Z,0
2017-03-03T01:34:44.714Z,0
2017-03-03T01:35:44.721Z,0
2017-03-03T01:36:44.730Z,0
2017-03-03T01:37:59.279Z,0
2017-03-03T01:38:44.769Z,0
2017-03-03T01:39:44.786Z,0
2017-03-03T01:40:44.810Z,0
2017-03-03T01:41:44.820Z,0
2017-03-03T01:42:44.861Z,0
2017-03-03T01:43:44.869Z,0
2017-03-03T01:44:59.401Z,0
2017-03-03T01:47:44.927Z,0
2017-03-03T01:48:59.488Z,0
2017-03-03T01:49:59.489Z,0
2017-03-03T01:50:44.978Z,0
2017-03-03T01:52:45.044Z,0
2017-03-03T01:53:44.649Z,0
2017-03-03T01:54:59.578Z,0
2017-03-03T01:55:45.083Z,0
2017-03-03T01:56:45.083Z,0
2017-03-03T01:57:45.129Z,0
2017-03-03T01:58:45.120Z,0
2017-03-03T01:59:45.145Z,0
2017-03-03T02:01:14.224Z,0
2017-03-03T02:01:45.172Z,0
2017-03-03T02:02:45.211Z,0
2017-03-03T02:03:45.214Z,0
2017-03-03T02:04:45.223Z,0
2017-03-03T02:05:45.267Z,0
2017-03-03T02:06:45.268Z,0
2017-03-03T02:07:59.437Z,0
2017-03-03T02:08:44.918Z,0
2017-03-03T02:09:45.308Z,0
2017-03-03T02:10:45.328Z,0
2017-03-03T02:11:45.358Z,0
2017-03-03T02:12:45.370Z,0
2017-03-03T02:13:45.401Z,0
2017-03-03T02:14:45.405Z,0
2017-03-03T02:15:45.415Z,0
2017-03-03T02:16:59.965Z,0
2017-03-03T02:17:45.466Z,0
2017-03-03T02:18:45.483Z,0
2017-03-03T02:19:45.121Z,0
2017-03-03T02:20:45.505Z,0
2017-03-03T02:22:00.053Z,0
2017-03-03T02:22:45.541Z,0
2017-03-03T02:24:00.088Z,0
2017-03-03T02:24:45.608Z,0
2017-03-03T02:25:45.204Z,0
2017-03-03T02:26:45.648Z,0
2017-03-03T02:27:45.637Z,0
2017-03-03T02:28:45.658Z,0
2017-03-03T02:30:00.197Z,0
2017-03-03T02:30:45.694Z,0
2017-03-03T02:31:45.700Z,0
2017-03-03T02:33:00.249Z,0
2017-03-03T02:34:00.263Z,0
2017-03-03T02:34:45.748Z,0
2017-03-03T02:35:45.780Z,0
2017-03-03T02:36:45.795Z,0
2017-03-03T02:38:00.332Z,0
2017-03-03T02:39:45.840Z,0
2017-03-03T02:40:45.852Z,0
2017-03-03T02:42:00.397Z,0
2017-03-03T02:42:45.898Z,0
2017-03-03T02:43:45.522Z,0
2017-03-03T02:44:45.920Z,0
2017-03-03T02:45:45.955Z,0
2017-03-03T02:46:45.961Z,0
2017-03-03T02:48:00.504Z,0
2017-03-03T02:48:45.997Z,0
2017-03-03T02:49:46.006Z,0
2017-03-03T02:50:46.029Z,0
2017-03-03T02:51:46.054Z,0
2017-03-03T02:52:46.058Z,0
2017-03-03T02:54:00.603Z,0
2017-03-03T02:55:46.134Z,0
2017-03-03T02:57:46.144Z,0
2017-03-03T02:59:00.690Z,0
2017-03-03T02:59:46.191Z,0
2017-03-03T03:00:46.222Z,0
2017-03-03T03:01:46.250Z,0
2017-03-03T03:03:46.260Z,0
2017-03-03T03:04:46.270Z,0
2017-03-03T03:05:46.282Z,0
2017-03-03T03:06:46.311Z,0
2017-03-03T03:07:46.326Z,0
2017-03-03T03:08:46.340Z,0
2017-03-03T03:09:46.381Z,0
2017-03-03T03:10:46.374Z,0
2017-03-03T03:11:46.406Z,0
2017-03-03T03:12:46.399Z,0
2017-03-03T03:13:46.421Z,0
2017-03-03T03:14:46.445Z,0
2017-03-03T03:15:46.453Z,0
2017-03-03T03:17:46.519Z,0
2017-03-03T03:18:46.512Z,0
2017-03-03T03:20:01.050Z,0
2017-03-03T03:21:01.075Z,0
2017-03-03T03:21:46.554Z,0
2017-03-03T03:22:46.582Z,0
2017-03-03T03:23:46.588Z,0
2017-03-03T03:25:01.149Z,0
2017-03-03T03:26:01.155Z,0
2017-03-03T03:26:46.639Z,0
2017-03-03T03:27:46.660Z,0
2017-03-03T03:29:01.205Z,0
2017-03-03T03:29:46.693Z,0
2017-03-03T03:31:01.236Z,0
2017-03-03T03:32:01.267Z,0
2017-03-03T03:32:46.751Z,0
2017-03-03T03:33:46.756Z,0
2017-03-03T03:34:46.790Z,0
2017-03-03T03:36:46.839Z,0
2017-03-03T03:38:46.843Z,0
2017-03-03T03:39:46.858Z,0
2017-03-03T03:40:46.878Z,0
2017-03-03T03:42:46.539Z,0
2017-03-03T03:43:46.940Z,0
2017-03-03T03:44:46.950Z,0
2017-03-03T03:45:46.995Z,0
2017-03-03T03:46:47.009Z,0
2017-03-03T03:47:47.003Z,0
2017-03-03T03:48:47.012Z,0
2017-03-03T03:50:01.569Z,0
2017-03-03T03:50:47.048Z,0
2017-03-03T03:52:01.592Z,0
2017-03-03T03:52:47.105Z,0
2017-03-03T03:53:47.114Z,0
2017-03-03T03:55:01.643Z,0
2017-03-03T03:57:01.673Z,0
2017-03-03T03:57:47.166Z,0
2017-03-03T03:58:47.215Z,0
2017-03-03T04:00:01.729Z,0
2017-03-03T04:00:47.225Z,0
2017-03-03T04:01:46.853Z,0
2017-03-03T04:02:47.265Z,0
2017-03-03T04:03:46.889Z,0
2017-03-03T04:04:47.301Z,0
2017-03-03T04:05:47.297Z,0
2017-03-03T04:06:47.315Z,0
2017-03-03T04:08:01.860Z,0
2017-03-03T04:08:47.353Z,0
2017-03-03T04:09:47.368Z,0
2017-03-03T04:10:47.384Z,0
2017-03-03T04:12:01.941Z,0
2017-03-03T04:12:47.443Z,0
2017-03-03T04:13:47.437Z,0
2017-03-03T04:14:47.460Z,0
2017-03-03T04:15:47.471Z,0
2017-03-03T04:16:47.480Z,0
2017-03-03T04:17:47.531Z,0
2017-03-03T04:18:47.524Z,0
2017-03-03T04:19:47.532Z,0
2017-03-03T04:21:47.571Z,0
2017-03-03T04:23:02.113Z,0
2017-03-03T04:23:47.601Z,0
2017-03-03T04:24:47.615Z,0
2017-03-03T04:25:47.252Z,0
2017-03-03T04:26:47.691Z,0
2017-03-03T04:27:47.696Z,0
2017-03-03T04:28:47.695Z,0
2017-03-03T04:29:47.714Z,0
2017-03-03T04:30:47.723Z,0
2017-03-03T04:31:47.740Z,0
2017-03-03T04:33:02.287Z,0
2017-03-03T04:33:47.785Z,0
2017-03-03T04:34:47.802Z,0
2017-03-03T04:35:47.807Z,0
2017-03-03T04:36:47.820Z,0
2017-03-03T04:37:47.836Z,0
2017-03-03T04:38:47.849Z,0
2017-03-03T04:39:47.881Z,0
2017-03-03T04:40:47.908Z,0
2017-03-03T04:41:47.921Z,0
2017-03-03T04:42:47.924Z,0
2017-03-03T04:43:47.962Z,0
2017-03-03T04:45:02.488Z,0
2017-03-03T04:45:47.963Z,0
2017-03-03T04:46:47.983Z,0
2017-03-03T04:49:02.541Z,0
2017-03-03T04:49:48.040Z,0
2017-03-03T04:50:48.060Z,0
2017-03-03T04:52:02.598Z,0
2017-03-03T04:53:48.112Z,0
2017-03-03T04:55:17.165Z,0
2017-03-03T04:55:48.130Z,0
2017-03-03T04:56:48.145Z,0
2017-03-03T04:58:02.696Z,0
2017-03-03T04:58:48.210Z,0
2017-03-03T05:00:02.730Z,0
2017-03-03T05:00:48.242Z,0
2017-03-03T05:01:48.241Z,0
2017-03-03T05:02:48.266Z,0
2017-03-03T05:03:48.285Z,0
2017-03-03T05:04:48.283Z,0
2017-03-03T05:05:48.326Z,0
2017-03-03T05:06:48.312Z,0
2017-03-03T05:07:48.325Z,0
2017-03-03T05:08:47.979Z,0
2017-03-03T05:09:48.372Z,0
2017-03-03T05:11:02.901Z,4
2017-03-03T05:11:48.391Z,4
2017-03-03T05:12:48.416Z,0
2017-03-03T05:13:48.446Z,0
2017-03-03T05:14:48.448Z,4
2017-03-03T05:15:48.452Z,4
2017-03-03T05:16:48.482Z,4
2017-03-03T05:17:48.510Z,4
2017-03-03T05:18:48.507Z,4
2017-03-03T05:19:48.519Z,8
2017-03-03T05:21:03.089Z,8
2017-03-03T05:22:47.820Z,12
2017-03-03T05:24:03.111Z,16
2017-03-03T05:24:48.604Z,16
2017-03-03T05:25:48.622Z,20
2017-03-03T05:27:17.688Z,28
2017-03-03T05:27:48.267Z,28
2017-03-03T05:29:48.691Z,40
2017-03-03T05:30:48.740Z,48
2017-03-03T05:31:48.726Z,56
2017-03-03T05:32:48.748Z,64
2017-03-03T05:33:48.749Z,72
2017-03-03T05:34:48.771Z,84
2017-03-03T05:35:48.780Z,100
2017-03-03T05:37:03.326Z,116
2017-03-03T05:38:48.835Z,144
2017-03-03T05:39:48.848Z,160
2017-03-03T05:40:48.863Z,180
2017-03-03T05:41:48.887Z,200
2017-03-03T05:43:03.435Z,232
2017-03-03T05:43:48.914Z,252
2017-03-03T05:44:48.957Z,276
2017-03-03T05:46:48.969Z,328
2017-03-03T05:48:03.505Z,368
2017-03-03T05:49:03.520Z,400
2017-03-03T05:50:03.555Z,432
2017-03-03T05:50:49.034Z,460
2017-03-03T05:51:49.039Z,496
2017-03-03T05:52:49.077Z,536
2017-03-03T05:53:49.077Z,576
2017-03-03T05:54:49.095Z,616
2017-03-03T05:56:03.663Z,684
2017-03-03T05:56:49.126Z,736
2017-03-03T05:58:03.676Z,824
2017-03-03T05:58:49.177Z,872
2017-03-03T05:59:49.174Z,920
2017-03-03T06:01:03.734Z,984
2017-03-03T06:01:49.254Z,1056
2017-03-03T06:02:49.224Z,1188
2017-03-03T06:03:49.250Z,1320
2017-03-03T06:04:49.255Z,1424
2017-03-03T06:06:49.310Z,1640
2017-03-03T06:07:49.316Z,1756
2017-03-03T06:08:49.319Z,1880
2017-03-03T06:09:49.340Z,2012
2017-03-03T06:10:49.390Z,2152
2017-03-03T06:11:49.368Z,2276
2017-03-03T06:12:49.408Z,2392
2017-03-03T06:13:49.406Z,2504
2017-03-03T06:14:49.417Z,2624
2017-03-03T06:15:49.449Z,2792
2017-03-03T06:16:49.469Z,3184
2017-03-03T06:17:49.468Z,3756
2017-03-03T06:18:49.508Z,4520
2017-03-03T06:19:49.499Z,5372
2017-03-03T06:20:49.518Z,6088
2017-03-03T06:21:49.543Z,7952
2017-03-03T06:22:49.557Z,8604
2017-03-03T06:23:49.599Z,8392
2017-03-03T06:24:49.611Z,11008
2017-03-03T06:25:49.218Z,11200
2017-03-03T06:26:49.628Z,11424
2017-03-03T06:27:49.253Z,11200
2017-03-03T06:28:49.650Z,12256
2017-03-03T06:30:04.209Z,12544
2017-03-03T06:30:49.303Z,13312
2017-03-03T06:31:49.353Z,17376
2017-03-03T06:32:49.723Z,19008
2017-03-03T06:33:49.375Z,19136
2017-03-03T06:34:49.766Z,19904
2017-03-03T06:35:49.783Z,21600
2017-03-03T06:36:49.804Z,22080
2017-03-03T06:38:04.351Z,22304
2017-03-03T06:39:04.371Z,23424
2017-03-03T06:39:49.882Z,24128
2017-03-03T06:40:49.889Z,25600
2017-03-03T06:41:49.925Z,26464
2017-03-03T06:42:49.938Z,26624
2017-03-03T06:43:49.942Z,28160
2017-03-03T06:44:49.966Z,29152
2017-03-03T06:46:04.521Z,28448
2017-03-03T06:46:50.010Z,29856
2017-03-03T06:47:50.039Z,32640
2017-03-03T06:48:50.071Z,32992
2017-03-03T06:50:50.124Z,32512
2017-03-03T06:52:04.675Z,22880
2017-03-03T06:52:50.170Z,27136
2017-03-03T06:53:50.173Z,28128
2017-03-03T06:55:04.724Z,28416
2017-03-03T06:55:50.225Z,28192
2017-03-03T06:56:50.241Z,28448
2017-03-03T06:57:50.348Z,28640
2017-03-03T06:58:50.319Z,26272
2017-03-03T06:59:50.363Z,26496
2017-03-03T07:00:50.343Z,28448
2017-03-03T07:02:19.433Z,29920
2017-03-03T07:02:50.392Z,28032
2017-03-03T07:03:50.414Z,29120
2017-03-03T07:04:50.465Z,30720
2017-03-03T07:06:04.984Z,34880
2017-03-03T07:06:50.476Z,35424
2017-03-03T07:08:05.039Z,39200
2017-03-03T07:08:50.544Z,38368
2017-03-03T07:09:50.560Z,38496
2017-03-03T07:10:50.611Z,38048
2017-03-03T07:12:05.131Z,29312
2017-03-03T07:12:50.642Z,24832
2017-03-03T07:13:50.651Z,27808
2017-03-03T07:14:50.720Z,25088
2017-03-03T07:15:50.734Z,26272
2017-03-03T07:16:50.728Z,30400
2017-03-03T07:18:05.286Z,35744
2017-03-03T07:19:50.818Z,39040
2017-03-03T07:20:50.829Z,40960
2017-03-03T07:21:50.848Z,40928
2017-03-03T07:22:50.885Z,44352
2017-03-03T07:23:51.199Z,45568
2017-03-03T07:24:50.925Z,43200
2017-03-03T07:25:50.949Z,43840
2017-03-03T07:26:50.977Z,46976
2017-03-03T07:27:51.005Z,45760
2017-03-03T07:28:50.652Z,44576
2017-03-03T07:30:05.205Z,45984
2017-03-03T07:30:51.095Z,43072
2017-03-03T07:31:51.104Z,40832
2017-03-03T07:33:05.662Z,40576
2017-03-03T07:33:51.166Z,38528
2017-03-03T07:34:51.182Z,42528
2017-03-03T07:35:51.200Z,46144
2017-03-03T07:36:51.226Z,45504
2017-03-03T07:38:51.285Z,44288
2017-03-03T07:39:51.307Z,44224
2017-03-03T07:41:51.371Z,43776
2017-03-03T07:42:51.387Z,38624
2017-03-03T07:43:51.423Z,41504
2017-03-03T07:44:51.456Z,43712
2017-03-03T07:45:51.461Z,43488
2017-03-03T07:46:51.485Z,32256
2017-03-03T07:47:51.506Z,30592
2017-03-03T07:48:51.544Z,36224
2017-03-03T07:49:51.556Z,34336
2017-03-03T07:50:51.594Z,36640
2017-03-03T07:51:51.611Z,34848
2017-03-03T07:52:51.632Z,34720
2017-03-03T07:53:51.653Z,36768
2017-03-03T07:54:51.691Z,35392
2017-03-03T07:55:51.732Z,36384
2017-03-03T07:56:51.393Z,37824
2017-03-03T07:57:51.772Z,39008
2017-03-03T07:59:06.310Z,39840
2017-03-03T07:59:51.450Z,40096
2017-03-03T08:00:51.874Z,38688
2017-03-03T08:01:51.858Z,33984
2017-03-03T08:03:06.427Z,37664
2017-03-03T08:03:51.907Z,39296
2017-03-03T08:05:06.463Z,40448
2017-03-03T08:05:51.966Z,41408
2017-03-03T08:07:52.024Z,41440
2017-03-03T08:09:06.559Z,43168
2017-03-03T08:09:52.053Z,41152
2017-03-03T08:10:52.093Z,35584
2017-03-03T08:11:52.131Z,33760
2017-03-03T08:12:52.136Z,29504
2017-03-03T08:13:52.154Z,26880
2017-03-03T08:14:52.179Z,22528
2017-03-03T08:16:06.745Z,27104
2017-03-03T08:16:52.240Z,27104
2017-03-03T08:17:52.269Z,27936
2017-03-03T08:18:52.278Z,29888
2017-03-03T08:19:52.316Z,31008
2017-03-03T08:21:06.854Z,31648
2017-03-03T08:22:06.881Z,28960
2017-03-03T08:22:52.369Z,31392
2017-03-03T08:23:52.398Z,31616
2017-03-03T08:25:06.970Z,32192
2017-03-03T08:25:52.448Z,32224
2017-03-03T08:27:07.003Z,32544
2017-03-03T08:27:52.493Z,30848
2017-03-03T08:28:52.526Z,28640
2017-03-03T08:29:52.541Z,29248
2017-03-03T08:31:52.589Z,26048
2017-03-03T08:32:52.617Z,25056
2017-03-03T08:33:52.639Z,25728
2017-03-03T08:34:52.665Z,22144
2017-03-03T08:35:52.709Z,20160
2017-03-03T08:37:07.245Z,18624
2017-03-03T08:37:52.735Z,19328
2017-03-03T08:39:06.922Z,18528
2017-03-03T08:39:52.792Z,18656
2017-03-03T08:40:52.809Z,16672
2017-03-03T08:42:07.365Z,17344
2017-03-03T08:43:07.389Z,17920
2017-03-03T08:43:52.896Z,18304
2017-03-03T08:44:52.919Z,18560
2017-03-03T08:46:07.461Z,17760
2017-03-03T08:46:52.970Z,18112
2017-03-03T08:47:53.005Z,17248
2017-03-03T08:48:53.023Z,15432
2017-03-03T08:49:53.032Z,14760
2017-03-03T08:50:53.054Z,14224
2017-03-03T08:51:53.083Z,15332
2017-03-03T08:53:07.630Z,15212
2017-03-03T08:53:53.123Z,15444
2017-03-03T08:54:53.149Z,15720
2017-03-03T08:55:53.183Z,16928
2017-03-03T08:56:53.254Z,15200
2017-03-03T08:57:53.231Z,16512
2017-03-03T08:58:53.254Z,18528
2017-03-03T08:59:53.282Z,19040
2017-03-03T09:00:53.315Z,19360
2017-03-03T09:01:53.323Z,18176
2017-03-03T09:02:53.349Z,17472
2017-03-03T09:03:53.408Z,17472
2017-03-03T09:04:53.413Z,18304
2017-03-03T09:05:53.410Z,17216
2017-03-03T09:06:53.442Z,18016
2017-03-03T09:08:07.626Z,18112
2017-03-03T09:08:53.480Z,16704
2017-03-03T09:09:53.522Z,17088
2017-03-03T09:10:53.530Z,16704
2017-03-03T09:11:53.553Z,17056
2017-03-03T09:12:53.580Z,16216
2017-03-03T09:13:53.602Z,14304
2017-03-03T09:15:08.158Z,11288
2017-03-03T09:15:53.693Z,11352
2017-03-03T09:16:53.682Z,13620
2017-03-03T09:17:53.706Z,13488
2017-03-03T09:18:53.729Z,13616
2017-03-03T09:19:53.757Z,14120
2017-03-03T09:20:53.771Z,14180
2017-03-03T09:21:53.798Z,14672
2017-03-03T09:22:53.828Z,14564
2017-03-03T09:23:53.841Z,14420
2017-03-03T09:24:53.871Z,14912
2017-03-03T09:26:08.426Z,15028
2017-03-03T09:26:53.926Z,15068
2017-03-03T09:27:53.938Z,14784
2017-03-03T09:29:08.490Z,15576
2017-03-03T09:29:54.014Z,15708
2017-03-03T09:30:53.624Z,15732
2017-03-03T09:31:54.041Z,15852
2017-03-03T09:32:54.055Z,15964
2017-03-03T09:33:54.113Z,15840
2017-03-03T09:34:54.104Z,15340
2017-03-03T09:36:54.161Z,15000
2017-03-03T09:37:54.198Z,14108
2017-03-03T09:38:54.205Z,13916
2017-03-03T09:40:08.772Z,13552
2017-03-03T09:40:54.266Z,14224
2017-03-03T09:42:08.818Z,13752
2017-03-03T09:42:54.299Z,13768
2017-03-03T09:44:08.463Z,13688
2017-03-03T09:45:08.521Z,13620
2017-03-03T09:46:08.510Z,14012
2017-03-03T09:46:54.390Z,14800
2017-03-03T09:49:54.486Z,15324
2017-03-03T09:50:54.493Z,16168
2017-03-03T09:52:09.040Z,15476
2017-03-03T09:53:54.568Z,16364
2017-03-03T09:54:54.587Z,16328
2017-03-03T09:56:54.649Z,16660
2017-03-03T09:57:54.661Z,15720
2017-03-03T09:59:54.704Z,13616
2017-03-03T10:00:54.762Z,15284
2017-03-03T10:01:54.796Z,15168
2017-03-03T10:02:54.780Z,14232
2017-03-03T10:03:54.809Z,13356
2017-03-03T10:04:54.838Z,13800
2017-03-03T10:05:54.860Z,12752
2017-03-03T10:06:54.879Z,15164
2017-03-03T10:07:54.917Z,15004
2017-03-03T10:08:54.937Z,14024
2017-03-03T10:09:54.585Z,14920
2017-03-03T10:12:09.544Z,14932
2017-03-03T10:12:55.031Z,14812
2017-03-03T10:13:55.051Z,14700
2017-03-03T10:15:09.605Z,14208
2017-03-03T10:15:55.099Z,13776
2017-03-03T10:16:55.119Z,13488
2017-03-03T10:18:09.681Z,13416
2017-03-03T10:18:55.210Z,13192
2017-03-03T10:19:55.209Z,12932
2017-03-03T10:21:09.767Z,13188
2017-03-03T10:21:55.246Z,13064
2017-03-03T10:22:55.268Z,13020
2017-03-03T10:23:55.313Z,12868
2017-03-03T10:24:55.341Z,12452
2017-03-03T10:25:55.383Z,12436
2017-03-03T10:26:55.366Z,12216
2017-03-03T10:28:09.538Z,12248
2017-03-03T10:28:55.418Z,12200
2017-03-03T10:29:55.447Z,12224
2017-03-03T10:30:55.467Z,12168
2017-03-03T10:31:55.503Z,11916
2017-03-03T10:33:10.054Z,11536
2017-03-03T10:33:55.753Z,11536
2017-03-03T10:34:55.571Z,11372
2017-03-03T10:36:10.119Z,11100
2017-03-03T10:36:55.614Z,10424
2017-03-03T10:37:55.647Z,10808
2017-03-03T10:38:55.679Z,10380
2017-03-03T10:39:55.695Z,9808
2017-03-03T10:40:55.713Z,9452
2017-03-03T10:41:55.355Z,9212
2017-03-03T10:43:24.832Z,8544
2017-03-03T10:43:55.789Z,8264
2017-03-03T10:44:55.804Z,8060
2017-03-03T10:45:55.829Z,7692
2017-03-03T10:46:55.869Z,7488
2017-03-03T10:48:10.407Z,7144
2017-03-03T10:48:55.905Z,6992
2017-03-03T10:49:55.931Z,6712
2017-03-03T10:50:55.951Z,6580
2017-03-03T10:51:55.984Z,6160
2017-03-03T10:52:56.000Z,6048
2017-03-03T10:54:10.548Z,5884
2017-03-03T10:54:56.048Z,5412
2017-03-03T10:56:10.603Z,5548
2017-03-03T10:56:55.710Z,5608
2017-03-03T10:57:56.117Z,5700
2017-03-03T10:59:10.673Z,5768
2017-03-03T10:59:56.162Z,5828
2017-03-03T11:00:56.183Z,5916
2017-03-03T11:01:56.235Z,5976
2017-03-03T11:02:56.238Z,6056
2017-03-03T11:04:56.283Z,6036
2017-03-03T11:05:56.326Z,5932
2017-03-03T11:06:56.323Z,5808
2017-03-03T11:07:56.413Z,5720
2017-03-03T11:09:10.899Z,5676
2017-03-03T11:09:56.406Z,5624
2017-03-03T11:11:10.945Z,5580
2017-03-03T11:11:56.441Z,5508
2017-03-03T11:12:56.475Z,5424
2017-03-03T11:13:56.487Z,5384
2017-03-03T11:15:11.056Z,5480
2017-03-03T11:15:56.541Z,5520
2017-03-03T11:16:56.167Z,5568
2017-03-03T11:17:56.579Z,5504
2017-03-03T11:19:11.131Z,5492
2017-03-03T11:19:56.235Z,5460
2017-03-03T11:20:56.692Z,5440
2017-03-03T11:21:56.679Z,5432
2017-03-03T11:22:56.692Z,5408
2017-03-03T11:23:56.749Z,5360
2017-03-03T11:24:56.742Z,5360
2017-03-03T11:25:56.786Z,5372
2017-03-03T11:26:56.785Z,5272
2017-03-03T11:27:56.828Z,5308
2017-03-03T11:28:56.842Z,5296
2017-03-03T11:29:56.876Z,5180
2017-03-03T11:31:25.549Z,5112
2017-03-03T11:31:56.911Z,5092
2017-03-03T11:32:56.923Z,5040
2017-03-03T11:33:56.985Z,4920
2017-03-03T11:35:56.606Z,4860
2017-03-03T11:36:56.627Z,4748
2017-03-03T11:37:57.049Z,4756
2017-03-03T11:38:57.092Z,4824
2017-03-03T11:39:56.716Z,4784
2017-03-03T11:40:57.110Z,4856
2017-03-03T11:41:57.132Z,4824
2017-03-03T11:42:57.163Z,4924
2017-03-03T11:43:57.186Z,4984
2017-03-03T11:44:57.216Z,5020
2017-03-03T11:45:57.232Z,5020
2017-03-03T11:47:11.773Z,4984
2017-03-03T11:47:57.426Z,4988
2017-03-03T11:48:57.291Z,5024
2017-03-03T11:49:57.326Z,4932
2017-03-03T11:52:11.507Z,4796
2017-03-03T11:52:57.391Z,4936
2017-03-03T11:53:57.404Z,4972
2017-03-03T11:54:57.441Z,4916
2017-03-03T11:55:57.996Z,4884
2017-03-03T11:56:57.502Z,4888
2017-03-03T11:57:57.493Z,4864
2017-03-03T11:58:57.519Z,4996
2017-03-03T11:59:57.571Z,5060
2017-03-03T12:00:57.567Z,5076
2017-03-03T12:01:57.604Z,5076
2017-03-03T12:03:12.135Z,5064
2017-03-03T12:03:57.631Z,5008
2017-03-03T12:04:57.660Z,5032
2017-03-03T12:05:57.295Z,5048
2017-03-03T12:07:12.237Z,4856
2017-03-03T12:07:57.733Z,4908
2017-03-03T12:08:57.755Z,4952
2017-03-03T12:09:57.793Z,4836
2017-03-03T12:10:57.812Z,4808
2017-03-03T12:11:57.820Z,4804
2017-03-03T12:12:57.861Z,4860
2017-03-03T12:13:57.872Z,4824
2017-03-03T12:14:57.889Z,4980
2017-03-03T12:15:57.902Z,4816
2017-03-03T12:16:57.921Z,5032
2017-03-03T12:18:12.495Z,5232
2017-03-03T12:18:57.971Z,5292
2017-03-03T12:19:58.010Z,5316
2017-03-03T12:21:12.568Z,5180
2017-03-03T12:22:12.568Z,5176
2017-03-03T12:22:58.062Z,5168
2017-03-03T12:23:58.086Z,5152
2017-03-03T12:24:58.112Z,4988
2017-03-03T12:25:58.134Z,5020
2017-03-03T12:26:58.152Z,4932
2017-03-03T12:27:58.196Z,5044
2017-03-03T12:28:58.198Z,5004
2017-03-03T12:29:58.218Z,5076
2017-03-03T12:30:57.856Z,5128
2017-03-03T12:31:58.266Z,5112
2017-03-03T12:32:58.286Z,5192
2017-03-03T12:33:58.307Z,5188
2017-03-03T12:34:58.378Z,5208
2017-03-03T12:35:58.362Z,5276
2017-03-03T12:37:12.913Z,5224
2017-03-03T12:37:58.401Z,5172
2017-03-03T12:40:12.973Z,5432
2017-03-03T12:40:58.489Z,5384
2017-03-03T12:41:58.515Z,5348
2017-03-03T12:42:58.381Z,5212
2017-03-03T12:43:58.543Z,5132
2017-03-03T12:44:58.561Z,5076
2017-03-03T12:45:58.597Z,5092
2017-03-03T12:46:58.607Z,5168
2017-03-03T12:47:58.629Z,5176
2017-03-03T12:48:58.286Z,5144
2017-03-03T12:50:13.200Z,5152
2017-03-03T12:50:58.755Z,5164
2017-03-03T12:51:58.715Z,5184
2017-03-03T12:54:13.315Z,4556
2017-03-03T12:54:58.819Z,4732
2017-03-03T12:56:13.337Z,4816
2017-03-03T12:56:58.445Z,4908
2017-03-03T12:57:58.893Z,4928
2017-03-03T12:58:58.882Z,4916
2017-03-03T12:59:58.959Z,4916
2017-03-03T13:00:58.923Z,4844
2017-03-03T13:01:58.948Z,4868
2017-03-03T13:02:58.976Z,4856
2017-03-03T13:03:59.000Z,4788
2017-03-03T13:04:59.017Z,4816
2017-03-03T13:06:13.192Z,4756
2017-03-03T13:06:59.071Z,4736
2017-03-03T13:07:59.080Z,4680
2017-03-03T13:08:59.100Z,4620
2017-03-03T13:09:59.127Z,4560
2017-03-03T13:10:58.775Z,4488
2017-03-03T13:11:58.820Z,4592
2017-03-03T13:13:13.334Z,4688
2017-03-03T13:13:58.848Z,4736
2017-03-03T13:15:13.399Z,4740
2017-03-03T13:15:58.894Z,4760
2017-03-03T13:16:59.308Z,4792
2017-03-03T13:17:58.921Z,4764
2017-03-03T13:18:58.944Z,4804
2017-03-03T13:19:59.361Z,4724
2017-03-03T13:22:13.922Z,4888
2017-03-03T13:22:59.046Z,4800
2017-03-03T13:23:59.444Z,4668
2017-03-03T13:24:59.457Z,4716
2017-03-03T13:25:59.496Z,4752
2017-03-03T13:26:58.745Z,4756
2017-03-03T13:27:59.552Z,4720
2017-03-03T13:28:59.557Z,4784
2017-03-03T13:29:59.573Z,4784
2017-03-03T13:30:59.597Z,4804
2017-03-03T13:32:14.147Z,4716
2017-03-03T13:33:14.169Z,4896
2017-03-03T13:34:59.790Z,4964
2017-03-03T13:35:59.711Z,4952
2017-03-03T13:36:59.728Z,5036
2017-03-03T13:38:14.285Z,5024
2017-03-03T13:38:59.802Z,5032
2017-03-03T13:39:59.798Z,4968
2017-03-03T13:40:59.819Z,5112
2017-03-03T13:41:59.863Z,5204
2017-03-03T13:42:59.917Z,5176
2017-03-03T13:43:59.914Z,5080
2017-03-03T13:44:59.924Z,5096
2017-03-03T13:45:59.946Z,5180
2017-03-03T13:46:59.599Z,5172
2017-03-03T13:47:59.995Z,5176
2017-03-03T13:49:14.545Z,5292
2017-03-03T13:49:59.651Z,5332
2017-03-03T13:51:00.052Z,5308
2017-03-03T13:52:00.068Z,5168
2017-03-03T13:53:14.622Z,4784
2017-03-03T13:53:59.736Z,5052
2017-03-03T13:55:00.140Z,4932
2017-03-03T13:56:14.692Z,4980
2017-03-03T13:57:00.217Z,5008
2017-03-03T13:58:00.219Z,5068
2017-03-03T13:59:00.241Z,5200
2017-03-03T14:00:00.269Z,5308
2017-03-03T14:01:00.277Z,5252
2017-03-03T14:02:00.311Z,5260
2017-03-03T14:03:14.863Z,5152
2017-03-03T14:04:00.343Z,5136
2017-03-03T14:05:00.370Z,5196
2017-03-03T14:06:14.948Z,5188
2017-03-03T14:07:00.418Z,5168
2017-03-03T14:08:00.462Z,5120
2017-03-03T14:09:00.068Z,5092
2017-03-03T14:10:00.487Z,5064
2017-03-03T14:11:00.497Z,5072
2017-03-03T14:12:00.532Z,5052
2017-03-03T14:13:00.552Z,5008
2017-03-03T14:14:15.093Z,4808
2017-03-03T14:15:00.588Z,4884
2017-03-03T14:16:00.612Z,4836
2017-03-03T14:17:00.664Z,4620
2017-03-03T14:18:15.185Z,4416
2017-03-03T14:19:00.688Z,4660
2017-03-03T14:20:00.712Z,4904
2017-03-03T14:22:00.746Z,4916
2017-03-03T14:23:00.773Z,4928
2017-03-03T14:24:00.788Z,4956
2017-03-03T14:25:15.350Z,5012
2017-03-03T14:26:00.832Z,5064
2017-03-03T14:27:00.857Z,5020
2017-03-03T14:28:15.410Z,4940
2017-03-03T14:29:00.921Z,4872
2017-03-03T14:30:00.937Z,4920